sensor_id;sensor_type;location;lat;lon;timestamp;pressure;altitude;pressure_sealevel;temperature;humidity
16525;BME280;8375;33.594;-117.718;2023-08-06T00:01:43;99816.19;;;31.39;47.24
16525;BME280;8375;33.594;-117.718;2023-08-06T00:04:11;99821.81;;;31.22;47.08
16525;BME280;8375;33.594;-117.718;2023-08-06T00:06:40;99824.44;;;31.12;47.14
16525;BME280;8375;33.594;-117.718;2023-08-06T00:09:10;99817.38;;;30.80;47.73
16525;BME280;8375;33.594;-117.718;2023-08-06T00:11:39;99816.34;;;30.91;47.96
16525;BME280;8375;33.594;-117.718;2023-08-06T00:14:10;99828.41;;;30.99;48.25
16525;BME280;8375;33.594;-117.718;2023-08-06T00:16:43;99826.81;;;30.98;48.14
16525;BME280;8375;33.594;-117.718;2023-08-06T00:19:12;99821.19;;;30.99;47.55
16525;BME280;8375;33.594;-117.718;2023-08-06T00:21:41;99825.69;;;30.88;48.16
16525;BME280;8375;33.594;-117.718;2023-08-06T00:24:12;99817.47;;;30.47;49.18
16525;BME280;8375;33.594;-117.718;2023-08-06T00:26:41;99818.09;;;30.59;49.26
16525;BME280;8375;33.594;-117.718;2023-08-06T00:29:10;99818.13;;;30.70;48.27
16525;BME280;8375;33.594;-117.718;2023-08-06T00:31:38;99821.94;;;30.90;47.02
16525;BME280;8375;33.594;-117.718;2023-08-06T00:34:07;99819.31;;;31.10;46.02
16525;BME280;8375;33.594;-117.718;2023-08-06T00:36:36;99820.44;;;31.20;46.28
16525;BME280;8375;33.594;-117.718;2023-08-06T00:39:04;99819.13;;;31.17;45.99
16525;BME280;8375;33.594;-117.718;2023-08-06T00:41:35;99819.06;;;31.07;45.88
16525;BME280;8375;33.594;-117.718;2023-08-06T00:44:04;99819.31;;;31.00;45.72
16525;BME280;8375;33.594;-117.718;2023-08-06T00:46:33;99816.88;;;30.93;45.93
16525;BME280;8375;33.594;-117.718;2023-08-06T00:49:01;99817.66;;;30.88;45.83
16525;BME280;8375;33.594;-117.718;2023-08-06T00:51:30;99808.31;;;30.96;45.84
16525;BME280;8375;33.594;-117.718;2023-08-06T00:54:00;99806.38;;;30.81;45.98
16525;BME280;8375;33.594;-117.718;2023-08-06T00:56:30;99805.31;;;30.82;45.97
16525;BME280;8375;33.594;-117.718;2023-08-06T00:59:01;99807.19;;;30.71;45.54
16525;BME280;8375;33.594;-117.718;2023-08-06T01:01:30;99802.28;;;30.58;45.81
16525;BME280;8375;33.594;-117.718;2023-08-06T01:03:58;99795.81;;;30.49;46.39
16525;BME280;8375;33.594;-117.718;2023-08-06T01:06:35;99794.97;;;30.43;45.54
16525;BME280;8375;33.594;-117.718;2023-08-06T01:09:19;99796.47;;;30.23;46.66
16525;BME280;8375;33.594;-117.718;2023-08-06T01:11:57;99801.50;;;30.14;46.45
16525;BME280;8375;33.594;-117.718;2023-08-06T01:14:33;99806.50;;;30.00;46.51
16525;BME280;8375;33.594;-117.718;2023-08-06T01:17:07;99803.25;;;29.98;46.98
16525;BME280;8375;33.594;-117.718;2023-08-06T01:19:36;99805.84;;;29.88;47.24
16525;BME280;8375;33.594;-117.718;2023-08-06T01:22:06;99804.75;;;29.84;46.74
16525;BME280;8375;33.594;-117.718;2023-08-06T01:24:35;99807.06;;;29.70;47.03
16525;BME280;8375;33.594;-117.718;2023-08-06T01:27:07;99798.69;;;29.61;46.05
16525;BME280;8375;33.594;-117.718;2023-08-06T01:29:41;99804.44;;;29.48;46.36
16525;BME280;8375;33.594;-117.718;2023-08-06T01:32:12;99796.53;;;29.31;46.58
16525;BME280;8375;33.594;-117.718;2023-08-06T01:34:44;99793.91;;;29.08;47.38
16525;BME280;8375;33.594;-117.718;2023-08-06T01:37:15;99801.81;;;28.98;46.74
16525;BME280;8375;33.594;-117.718;2023-08-06T01:39:44;99798.63;;;28.79;47.35
16525;BME280;8375;33.594;-117.718;2023-08-06T01:42:13;99801.47;;;28.72;47.65
16525;BME280;8375;33.594;-117.718;2023-08-06T01:44:42;99804.81;;;28.62;47.37
16525;BME280;8375;33.594;-117.718;2023-08-06T01:47:10;99811.97;;;28.57;46.81
16525;BME280;8375;33.594;-117.718;2023-08-06T01:49:39;99810.06;;;28.35;47.35
16525;BME280;8375;33.594;-117.718;2023-08-06T01:52:08;99809.78;;;28.14;46.44
16525;BME280;8375;33.594;-117.718;2023-08-06T01:54:38;99810.09;;;28.01;46.20
16525;BME280;8375;33.594;-117.718;2023-08-06T01:57:07;99820.44;;;27.97;46.82
16525;BME280;8375;33.594;-117.718;2023-08-06T01:59:35;99813.56;;;27.84;46.88
16525;BME280;8375;33.594;-117.718;2023-08-06T02:02:05;99817.69;;;27.75;47.13
16525;BME280;8375;33.594;-117.718;2023-08-06T02:04:33;99812.34;;;27.58;46.79
16525;BME280;8375;33.594;-117.718;2023-08-06T02:07:02;99828.81;;;27.55;47.84
16525;BME280;8375;33.594;-117.718;2023-08-06T02:09:31;99826.75;;;27.45;47.88
16525;BME280;8375;33.594;-117.718;2023-08-06T02:12:04;99837.69;;;27.31;47.57
16525;BME280;8375;33.594;-117.718;2023-08-06T02:14:33;99834.75;;;27.16;48.15
16525;BME280;8375;33.594;-117.718;2023-08-06T02:17:01;99848.66;;;27.06;48.13
16525;BME280;8375;33.594;-117.718;2023-08-06T02:19:30;99854.41;;;26.86;49.02
16525;BME280;8375;33.594;-117.718;2023-08-06T02:21:59;99850.91;;;26.73;49.47
16525;BME280;8375;33.594;-117.718;2023-08-06T02:24:28;99842.34;;;26.59;50.92
16525;BME280;8375;33.594;-117.718;2023-08-06T02:26:57;99846.81;;;26.11;53.22
16525;BME280;8375;33.594;-117.718;2023-08-06T02:29:27;99846.84;;;25.38;55.42
16525;BME280;8375;33.594;-117.718;2023-08-06T02:31:56;99855.53;;;24.78;57.17
16525;BME280;8375;33.594;-117.718;2023-08-06T02:34:25;99857.25;;;24.65;58.19
16525;BME280;8375;33.594;-117.718;2023-08-06T02:36:54;99861.00;;;24.57;58.88
16525;BME280;8375;33.594;-117.718;2023-08-06T02:41:50;99862.06;;;24.06;61.42
16525;BME280;8375;33.594;-117.718;2023-08-06T02:44:19;99857.06;;;23.84;62.77
16525;BME280;8375;33.594;-117.718;2023-08-06T02:46:49;99854.38;;;23.91;63.21
16525;BME280;8375;33.594;-117.718;2023-08-06T02:49:18;99859.78;;;23.70;64.28
16525;BME280;8375;33.594;-117.718;2023-08-06T02:51:46;99862.25;;;23.72;64.48
16525;BME280;8375;33.594;-117.718;2023-08-06T02:54:15;99855.22;;;23.91;64.15
16525;BME280;8375;33.594;-117.718;2023-08-06T02:56:44;99862.06;;;24.06;63.70
16525;BME280;8375;33.594;-117.718;2023-08-06T02:59:13;99865.84;;;24.16;63.31
16525;BME280;8375;33.594;-117.718;2023-08-06T03:01:41;99860.50;;;24.23;63.10
16525;BME280;8375;33.594;-117.718;2023-08-06T03:06:39;99865.09;;;24.35;62.73
16525;BME280;8375;33.594;-117.718;2023-08-06T03:09:08;99857.41;;;24.26;62.98
16525;BME280;8375;33.594;-117.718;2023-08-06T03:11:37;99861.53;;;24.22;63.05
16525;BME280;8375;33.594;-117.718;2023-08-06T03:14:05;99868.06;;;24.20;63.64
16525;BME280;8375;33.594;-117.718;2023-08-06T03:16:34;99873.19;;;24.14;63.46
16525;BME280;8375;33.594;-117.718;2023-08-06T03:19:03;99876.44;;;24.16;63.93
16525;BME280;8375;33.594;-117.718;2023-08-06T03:21:33;99875.84;;;24.14;63.54
16525;BME280;8375;33.594;-117.718;2023-08-06T03:24:02;99874.47;;;24.12;63.93
16525;BME280;8375;33.594;-117.718;2023-08-06T03:26:30;99884.72;;;24.01;64.32
16525;BME280;8375;33.594;-117.718;2023-08-06T03:28:59;99876.88;;;23.81;65.30
16525;BME280;8375;33.594;-117.718;2023-08-06T03:31:28;99878.94;;;23.72;66.11
16525;BME280;8375;33.594;-117.718;2023-08-06T03:33:56;99880.03;;;23.65;66.94
16525;BME280;8375;33.594;-117.718;2023-08-06T03:36:25;99878.03;;;23.53;67.78
16525;BME280;8375;33.594;-117.718;2023-08-06T03:38:55;99884.38;;;23.46;68.65
16525;BME280;8375;33.594;-117.718;2023-08-06T03:41:24;99891.13;;;23.41;69.17
16525;BME280;8375;33.594;-117.718;2023-08-06T03:43:52;99895.50;;;23.09;71.12
16525;BME280;8375;33.594;-117.718;2023-08-06T03:46:21;99896.94;;;23.05;71.42
16525;BME280;8375;33.594;-117.718;2023-08-06T03:48:50;99905.25;;;23.08;71.48
16525;BME280;8375;33.594;-117.718;2023-08-06T03:51:18;99908.13;;;23.00;71.94
16525;BME280;8375;33.594;-117.718;2023-08-06T03:53:47;99908.97;;;23.00;72.39
16525;BME280;8375;33.594;-117.718;2023-08-06T03:56:17;99907.09;;;23.01;72.48
16525;BME280;8375;33.594;-117.718;2023-08-06T03:58:46;99904.09;;;22.77;73.94
16525;BME280;8375;33.594;-117.718;2023-08-06T04:01:15;99910.19;;;22.44;75.62
16525;BME280;8375;33.594;-117.718;2023-08-06T04:03:43;99912.22;;;22.42;76.22
16525;BME280;8375;33.594;-117.718;2023-08-06T04:06:12;99918.53;;;22.41;76.65
16525;BME280;8375;33.594;-117.718;2023-08-06T04:08:41;99913.84;;;22.43;76.91
16525;BME280;8375;33.594;-117.718;2023-08-06T04:11:10;99918.59;;;22.48;76.62
16525;BME280;8375;33.594;-117.718;2023-08-06T04:13:42;99919.81;;;22.52;76.34
16525;BME280;8375;33.594;-117.718;2023-08-06T04:16:11;99922.44;;;22.52;76.91
16525;BME280;8375;33.594;-117.718;2023-08-06T04:18:41;99924.47;;;22.50;77.36
16525;BME280;8375;33.594;-117.718;2023-08-06T04:21:09;99924.06;;;22.53;77.17
16525;BME280;8375;33.594;-117.718;2023-08-06T04:23:38;99935.66;;;22.52;76.99
16525;BME280;8375;33.594;-117.718;2023-08-06T04:26:07;99935.44;;;22.53;77.21
16525;BME280;8375;33.594;-117.718;2023-08-06T04:28:35;99933.63;;;22.54;77.40
16525;BME280;8375;33.594;-117.718;2023-08-06T04:31:06;99937.06;;;22.54;77.56
16525;BME280;8375;33.594;-117.718;2023-08-06T04:33:35;99934.44;;;22.54;77.69
16525;BME280;8375;33.594;-117.718;2023-08-06T04:36:04;99943.97;;;22.42;78.52
16525;BME280;8375;33.594;-117.718;2023-08-06T04:38:32;99938.06;;;22.40;79.21
16525;BME280;8375;33.594;-117.718;2023-08-06T04:41:02;99939.09;;;22.32;79.52
16525;BME280;8375;33.594;-117.718;2023-08-06T04:43:31;99933.38;;;22.28;79.96
16525;BME280;8375;33.594;-117.718;2023-08-06T04:46:00;99926.47;;;22.21;80.26
16525;BME280;8375;33.594;-117.718;2023-08-06T04:48:30;99923.81;;;22.14;80.72
16525;BME280;8375;33.594;-117.718;2023-08-06T04:50:59;99924.00;;;22.06;81.17
16525;BME280;8375;33.594;-117.718;2023-08-06T04:53:28;99924.34;;;21.89;82.32
16525;BME280;8375;33.594;-117.718;2023-08-06T04:55:56;99926.22;;;22.02;82.13
16525;BME280;8375;33.594;-117.718;2023-08-06T04:58:25;99929.09;;;22.07;81.55
16525;BME280;8375;33.594;-117.718;2023-08-06T05:00:54;99934.38;;;22.07;81.30
16525;BME280;8375;33.594;-117.718;2023-08-06T05:03:23;99941.91;;;22.10;80.98
16525;BME280;8375;33.594;-117.718;2023-08-06T05:05:53;99933.75;;;22.12;80.91
16525;BME280;8375;33.594;-117.718;2023-08-06T05:08:22;99942.31;;;22.07;80.74
16525;BME280;8375;33.594;-117.718;2023-08-06T05:10:50;99928.03;;;22.02;81.00
16525;BME280;8375;33.594;-117.718;2023-08-06T05:13:19;99926.59;;;21.92;81.54
16525;BME280;8375;33.594;-117.718;2023-08-06T05:15:48;99925.16;;;21.83;82.16
16525;BME280;8375;33.594;-117.718;2023-08-06T05:18:16;99920.47;;;21.78;82.95
16525;BME280;8375;33.594;-117.718;2023-08-06T05:20:45;99934.31;;;21.80;82.75
16525;BME280;8375;33.594;-117.718;2023-08-06T05:23:16;99937.34;;;21.77;83.05
16525;BME280;8375;33.594;-117.718;2023-08-06T05:25:44;99932.28;;;21.82;82.67
16525;BME280;8375;33.594;-117.718;2023-08-06T05:28:13;99934.88;;;21.76;82.93
16525;BME280;8375;33.594;-117.718;2023-08-06T05:30:42;99938.53;;;21.75;83.23
16525;BME280;8375;33.594;-117.718;2023-08-06T05:33:10;99932.03;;;21.71;83.69
16525;BME280;8375;33.594;-117.718;2023-08-06T05:35:41;99933.72;;;21.43;85.76
16525;BME280;8375;33.594;-117.718;2023-08-06T05:38:09;99928.00;;;21.39;85.89
16525;BME280;8375;33.594;-117.718;2023-08-06T05:40:40;99923.13;;;21.36;86.25
16525;BME280;8375;33.594;-117.718;2023-08-06T05:43:08;99919.06;;;21.34;86.28
16525;BME280;8375;33.594;-117.718;2023-08-06T05:45:37;99916.59;;;21.25;86.59
16525;BME280;8375;33.594;-117.718;2023-08-06T05:48:05;99928.56;;;21.28;86.80
16525;BME280;8375;33.594;-117.718;2023-08-06T05:50:34;99929.41;;;21.29;87.03
16525;BME280;8375;33.594;-117.718;2023-08-06T05:53:03;99929.56;;;21.27;86.95
16525;BME280;8375;33.594;-117.718;2023-08-06T05:55:31;99938.94;;;21.30;86.81
16525;BME280;8375;33.594;-117.718;2023-08-06T05:58:02;99944.00;;;21.24;87.50
16525;BME280;8375;33.594;-117.718;2023-08-06T06:00:30;99942.38;;;21.23;87.54
16525;BME280;8375;33.594;-117.718;2023-08-06T06:02:59;99952.47;;;21.20;87.65
16525;BME280;8375;33.594;-117.718;2023-08-06T06:05:28;99948.03;;;21.20;87.39
16525;BME280;8375;33.594;-117.718;2023-08-06T06:07:56;99937.47;;;21.20;87.89
16525;BME280;8375;33.594;-117.718;2023-08-06T06:10:25;99943.09;;;21.17;88.24
16525;BME280;8375;33.594;-117.718;2023-08-06T06:12:54;99948.38;;;21.17;88.77
16525;BME280;8375;33.594;-117.718;2023-08-06T06:15:24;99951.81;;;21.11;89.58
16525;BME280;8375;33.594;-117.718;2023-08-06T06:17:53;99956.44;;;21.02;90.40
16525;BME280;8375;33.594;-117.718;2023-08-06T06:20:22;99955.22;;;21.05;90.50
16525;BME280;8375;33.594;-117.718;2023-08-06T06:22:50;99962.84;;;20.93;91.65
16525;BME280;8375;33.594;-117.718;2023-08-06T06:25:19;99960.00;;;20.94;91.78
16525;BME280;8375;33.594;-117.718;2023-08-06T06:27:48;99953.31;;;20.92;91.96
16525;BME280;8375;33.594;-117.718;2023-08-06T06:30:17;99953.25;;;20.85;92.24
16525;BME280;8375;33.594;-117.718;2023-08-06T06:32:47;99958.28;;;20.80;92.29
16525;BME280;8375;33.594;-117.718;2023-08-06T06:35:16;99954.03;;;20.79;92.38
16525;BME280;8375;33.594;-117.718;2023-08-06T06:37:45;99947.13;;;20.78;92.64
16525;BME280;8375;33.594;-117.718;2023-08-06T06:40:13;99953.56;;;20.75;92.90
16525;BME280;8375;33.594;-117.718;2023-08-06T06:42:42;99946.22;;;20.71;93.16
16525;BME280;8375;33.594;-117.718;2023-08-06T06:45:11;99961.66;;;20.74;93.64
16525;BME280;8375;33.594;-117.718;2023-08-06T06:47:39;99960.22;;;20.71;94.10
16525;BME280;8375;33.594;-117.718;2023-08-06T06:50:10;99964.69;;;20.71;93.89
16525;BME280;8375;33.594;-117.718;2023-08-06T06:52:39;99967.31;;;20.71;94.08
16525;BME280;8375;33.594;-117.718;2023-08-06T06:55:08;99974.59;;;20.69;93.72
16525;BME280;8375;33.594;-117.718;2023-08-06T06:57:36;99978.88;;;20.70;93.90
16525;BME280;8375;33.594;-117.718;2023-08-06T07:00:06;99978.06;;;20.69;94.09
16525;BME280;8375;33.594;-117.718;2023-08-06T07:02:35;99972.34;;;20.65;94.36
16525;BME280;8375;33.594;-117.718;2023-08-06T07:05:04;99975.34;;;20.62;94.45
16525;BME280;8375;33.594;-117.718;2023-08-06T07:07:35;99976.81;;;20.65;94.62
16525;BME280;8375;33.594;-117.718;2023-08-06T07:10:05;99976.44;;;20.46;96.13
16525;BME280;8375;33.594;-117.718;2023-08-06T07:12:34;99974.38;;;20.42;96.54
16525;BME280;8375;33.594;-117.718;2023-08-06T07:15:04;99972.09;;;20.38;96.63
16525;BME280;8375;33.594;-117.718;2023-08-06T07:17:33;99972.06;;;20.32;97.02
16525;BME280;8375;33.594;-117.718;2023-08-06T07:20:02;99960.88;;;20.30;96.86
16525;BME280;8375;33.594;-117.718;2023-08-06T07:22:31;99971.34;;;20.23;97.16
16525;BME280;8375;33.594;-117.718;2023-08-06T07:25:01;99965.06;;;20.24;97.42
16525;BME280;8375;33.594;-117.718;2023-08-06T07:27:30;99964.28;;;20.23;97.28
16525;BME280;8375;33.594;-117.718;2023-08-06T07:30:00;99964.69;;;20.27;96.86
16525;BME280;8375;33.594;-117.718;2023-08-06T07:32:28;99963.81;;;20.20;97.36
16525;BME280;8375;33.594;-117.718;2023-08-06T07:34:57;99971.84;;;20.12;97.29
16525;BME280;8375;33.594;-117.718;2023-08-06T07:37:29;99974.84;;;20.08;97.64
16525;BME280;8375;33.594;-117.718;2023-08-06T07:39:57;99978.56;;;20.14;97.83
16525;BME280;8375;33.594;-117.718;2023-08-06T07:42:28;99986.47;;;20.14;97.94
16525;BME280;8375;33.594;-117.718;2023-08-06T07:44:57;99976.09;;;20.13;98.13
16525;BME280;8375;33.594;-117.718;2023-08-06T07:47:26;99978.09;;;20.11;98.20
16525;BME280;8375;33.594;-117.718;2023-08-06T07:49:55;99985.25;;;20.17;97.71
16525;BME280;8375;33.594;-117.718;2023-08-06T07:52:23;99988.72;;;20.17;98.24
16525;BME280;8375;33.594;-117.718;2023-08-06T07:54:52;99982.47;;;20.18;98.10
16525;BME280;8375;33.594;-117.718;2023-08-06T07:57:21;99976.56;;;20.16;98.08
16525;BME280;8375;33.594;-117.718;2023-08-06T07:59:51;99976.03;;;20.06;99.07
16525;BME280;8375;33.594;-117.718;2023-08-06T08:02:20;99979.16;;;19.95;99.91
16525;BME280;8375;33.594;-117.718;2023-08-06T08:04:49;99971.25;;;19.79;100.00
16525;BME280;8375;33.594;-117.718;2023-08-06T08:07:18;99973.81;;;19.73;100.00
16525;BME280;8375;33.594;-117.718;2023-08-06T08:09:47;99974.19;;;19.70;100.00
16525;BME280;8375;33.594;-117.718;2023-08-06T08:12:16;99966.81;;;19.65;100.00
16525;BME280;8375;33.594;-117.718;2023-08-06T08:14:45;99960.91;;;19.63;100.00
16525;BME280;8375;33.594;-117.718;2023-08-06T08:17:15;99966.63;;;19.52;100.00
16525;BME280;8375;33.594;-117.718;2023-08-06T08:19:44;99961.94;;;19.32;100.00
16525;BME280;8375;33.594;-117.718;2023-08-06T08:22:12;99957.84;;;19.29;100.00
16525;BME280;8375;33.594;-117.718;2023-08-06T08:24:41;99961.66;;;19.27;100.00
16525;BME280;8375;33.594;-117.718;2023-08-06T08:27:10;99957.03;;;19.29;100.00
16525;BME280;8375;33.594;-117.718;2023-08-06T08:29:39;99959.13;;;19.33;100.00
16525;BME280;8375;33.594;-117.718;2023-08-06T08:32:07;99962.94;;;19.31;100.00
16525;BME280;8375;33.594;-117.718;2023-08-06T08:34:38;99954.22;;;19.30;100.00
16525;BME280;8375;33.594;-117.718;2023-08-06T08:37:07;99950.75;;;19.30;100.00
16525;BME280;8375;33.594;-117.718;2023-08-06T08:39:35;99965.91;;;19.28;100.00
16525;BME280;8375;33.594;-117.718;2023-08-06T08:42:04;99960.28;;;19.31;100.00
16525;BME280;8375;33.594;-117.718;2023-08-06T08:44:33;99960.28;;;19.31;100.00
16525;BME280;8375;33.594;-117.718;2023-08-06T08:47:06;99955.50;;;19.34;100.00
16525;BME280;8375;33.594;-117.718;2023-08-06T08:49:38;99951.66;;;19.37;100.00
16525;BME280;8375;33.594;-117.718;2023-08-06T08:52:08;99951.50;;;19.39;100.00
16525;BME280;8375;33.594;-117.718;2023-08-06T08:54:39;99950.59;;;19.01;100.00
16525;BME280;8375;33.594;-117.718;2023-08-06T08:57:08;99951.50;;;18.85;100.00
16525;BME280;8375;33.594;-117.718;2023-08-06T08:59:37;99952.50;;;18.69;100.00
16525;BME280;8375;33.594;-117.718;2023-08-06T09:02:05;99958.53;;;18.70;100.00
16525;BME280;8375;33.594;-117.718;2023-08-06T09:04:40;99951.41;;;18.79;100.00
16525;BME280;8375;33.594;-117.718;2023-08-06T09:07:12;99951.69;;;18.84;100.00
16525;BME280;8375;33.594;-117.718;2023-08-06T09:09:43;99959.03;;;18.88;100.00
16525;BME280;8375;33.594;-117.718;2023-08-06T09:12:15;99962.78;;;18.94;100.00
16525;BME280;8375;33.594;-117.718;2023-08-06T09:14:44;99956.00;;;19.00;100.00
16525;BME280;8375;33.594;-117.718;2023-08-06T09:17:13;99962.75;;;19.02;100.00
16525;BME280;8375;33.594;-117.718;2023-08-06T09:19:47;99959.50;;;18.92;100.00
16525;BME280;8375;33.594;-117.718;2023-08-06T09:22:18;99957.03;;;18.75;100.00
16525;BME280;8375;33.594;-117.718;2023-08-06T09:24:47;99964.00;;;18.68;100.00
16525;BME280;8375;33.594;-117.718;2023-08-06T09:27:15;99962.16;;;18.69;100.00
16525;BME280;8375;33.594;-117.718;2023-08-06T09:29:45;99963.44;;;18.73;100.00
16525;BME280;8375;33.594;-117.718;2023-08-06T09:32:15;99963.09;;;18.76;100.00
16525;BME280;8375;33.594;-117.718;2023-08-06T09:34:43;99960.31;;;18.77;100.00
16525;BME280;8375;33.594;-117.718;2023-08-06T09:37:14;99962.09;;;18.77;100.00
16525;BME280;8375;33.594;-117.718;2023-08-06T09:39:42;99959.31;;;18.79;100.00
16525;BME280;8375;33.594;-117.718;2023-08-06T09:42:15;99959.25;;;18.87;100.00
16525;BME280;8375;33.594;-117.718;2023-08-06T09:44:44;99964.50;;;18.87;100.00
16525;BME280;8375;33.594;-117.718;2023-08-06T09:47:12;99955.41;;;18.89;100.00
16525;BME280;8375;33.594;-117.718;2023-08-06T09:49:44;99964.59;;;18.94;100.00
16525;BME280;8375;33.594;-117.718;2023-08-06T09:52:14;99963.94;;;18.76;100.00
16525;BME280;8375;33.594;-117.718;2023-08-06T09:54:44;99970.69;;;18.71;100.00
16525;BME280;8375;33.594;-117.718;2023-08-06T09:57:12;99964.44;;;18.72;100.00
16525;BME280;8375;33.594;-117.718;2023-08-06T09:59:43;99966.44;;;18.70;100.00
16525;BME280;8375;33.594;-117.718;2023-08-06T10:02:14;99975.31;;;18.69;100.00
16525;BME280;8375;33.594;-117.718;2023-08-06T10:04:44;99965.00;;;18.67;100.00
16525;BME280;8375;33.594;-117.718;2023-08-06T10:07:16;99963.28;;;18.74;100.00
16525;BME280;8375;33.594;-117.718;2023-08-06T10:09:45;99961.94;;;18.79;100.00
16525;BME280;8375;33.594;-117.718;2023-08-06T10:12:14;99962.38;;;18.82;100.00
16525;BME280;8375;33.594;-117.718;2023-08-06T10:14:45;99953.69;;;18.82;100.00
16525;BME280;8375;33.594;-117.718;2023-08-06T10:17:14;99954.34;;;18.84;100.00
16525;BME280;8375;33.594;-117.718;2023-08-06T10:19:43;99959.41;;;18.85;100.00
16525;BME280;8375;33.594;-117.718;2023-08-06T10:22:15;99958.94;;;18.82;100.00
16525;BME280;8375;33.594;-117.718;2023-08-06T10:24:51;99956.69;;;18.79;100.00
16525;BME280;8375;33.594;-117.718;2023-08-06T10:27:28;99960.09;;;18.79;100.00
16525;BME280;8375;33.594;-117.718;2023-08-06T10:32:49;99964.84;;;18.84;100.00
16525;BME280;8375;33.594;-117.718;2023-08-06T10:35:31;99968.75;;;18.88;100.00
16525;BME280;8375;33.594;-117.718;2023-08-06T10:38:08;99960.88;;;18.88;100.00
16525;BME280;8375;33.594;-117.718;2023-08-06T10:40:39;99962.03;;;18.85;100.00
16525;BME280;8375;33.594;-117.718;2023-08-06T10:43:11;99963.94;;;18.76;100.00
16525;BME280;8375;33.594;-117.718;2023-08-06T10:45:52;99962.44;;;18.74;100.00
16525;BME280;8375;33.594;-117.718;2023-08-06T10:48:29;99963.72;;;18.78;100.00
16525;BME280;8375;33.594;-117.718;2023-08-06T10:51:00;99969.47;;;18.82;100.00
16525;BME280;8375;33.594;-117.718;2023-08-06T10:53:31;99968.91;;;18.86;100.00
16525;BME280;8375;33.594;-117.718;2023-08-06T10:56:00;99969.91;;;18.85;100.00
16525;BME280;8375;33.594;-117.718;2023-08-06T10:58:32;99972.19;;;18.88;100.00
16525;BME280;8375;33.594;-117.718;2023-08-06T11:01:01;99968.75;;;18.88;100.00
16525;BME280;8375;33.594;-117.718;2023-08-06T11:03:30;99979.44;;;18.86;100.00
16525;BME280;8375;33.594;-117.718;2023-08-06T11:06:00;99981.06;;;18.87;100.00
16525;BME280;8375;33.594;-117.718;2023-08-06T11:08:35;99981.91;;;18.88;100.00
16525;BME280;8375;33.594;-117.718;2023-08-06T11:11:09;99982.06;;;18.86;100.00
16525;BME280;8375;33.594;-117.718;2023-08-06T11:13:39;99977.53;;;18.80;100.00
16525;BME280;8375;33.594;-117.718;2023-08-06T11:16:08;99976.59;;;18.73;100.00
16525;BME280;8375;33.594;-117.718;2023-08-06T11:18:37;99979.13;;;18.66;100.00
16525;BME280;8375;33.594;-117.718;2023-08-06T11:21:06;99977.00;;;18.61;100.00
16525;BME280;8375;33.594;-117.718;2023-08-06T11:23:36;99972.75;;;18.60;100.00
16525;BME280;8375;33.594;-117.718;2023-08-06T11:26:05;99977.84;;;18.62;100.00
16525;BME280;8375;33.594;-117.718;2023-08-06T11:28:33;99985.66;;;18.70;100.00
16525;BME280;8375;33.594;-117.718;2023-08-06T11:31:02;99974.16;;;18.71;100.00
16525;BME280;8375;33.594;-117.718;2023-08-06T11:33:31;99986.03;;;18.67;100.00
16525;BME280;8375;33.594;-117.718;2023-08-06T11:36:00;99974.31;;;18.70;100.00
16525;BME280;8375;33.594;-117.718;2023-08-06T11:38:29;99970.41;;;18.66;100.00
16525;BME280;8375;33.594;-117.718;2023-08-06T11:41:00;99977.00;;;18.61;100.00
16525;BME280;8375;33.594;-117.718;2023-08-06T11:43:31;99971.41;;;18.65;100.00
16525;BME280;8375;33.594;-117.718;2023-08-06T11:45:59;99979.94;;;18.67;100.00
16525;BME280;8375;33.594;-117.718;2023-08-06T11:48:28;99986.31;;;18.72;100.00
16525;BME280;8375;33.594;-117.718;2023-08-06T11:50:57;99984.84;;;18.70;100.00
16525;BME280;8375;33.594;-117.718;2023-08-06T11:53:28;99985.03;;;18.68;100.00
16525;BME280;8375;33.594;-117.718;2023-08-06T11:55:57;99988.09;;;18.72;100.00
16525;BME280;8375;33.594;-117.718;2023-08-06T11:58:29;99985.66;;;18.70;100.00
16525;BME280;8375;33.594;-117.718;2023-08-06T12:00:58;99985.38;;;18.65;100.00
16525;BME280;8375;33.594;-117.718;2023-08-06T12:03:27;99993.63;;;18.62;100.00
16525;BME280;8375;33.594;-117.718;2023-08-06T12:05:58;99986.19;;;18.66;100.00
16525;BME280;8375;33.594;-117.718;2023-08-06T12:08:27;99983.91;;;18.62;100.00
16525;BME280;8375;33.594;-117.718;2023-08-06T12:10:56;99984.72;;;18.63;100.00
16525;BME280;8375;33.594;-117.718;2023-08-06T12:13:25;99985.53;;;18.64;100.00
16525;BME280;8375;33.594;-117.718;2023-08-06T12:15:56;99990.44;;;18.67;100.00
16525;BME280;8375;33.594;-117.718;2023-08-06T12:18:24;99994.59;;;18.61;100.00
16525;BME280;8375;33.594;-117.718;2023-08-06T12:20:53;99996.41;;;18.60;100.00
16525;BME280;8375;33.594;-117.718;2023-08-06T12:23:22;100001.53;;;18.54;100.00
16525;BME280;8375;33.594;-117.718;2023-08-06T12:25:50;99998.09;;;18.53;100.00
16525;BME280;8375;33.594;-117.718;2023-08-06T12:28:19;100012.53;;;18.57;100.00
16525;BME280;8375;33.594;-117.718;2023-08-06T12:30:48;100014.00;;;18.60;100.00
16525;BME280;8375;33.594;-117.718;2023-08-06T12:33:19;100014.00;;;18.60;100.00
16525;BME280;8375;33.594;-117.718;2023-08-06T12:35:48;100014.88;;;18.52;100.00
16525;BME280;8375;33.594;-117.718;2023-08-06T12:38:16;100021.75;;;18.53;100.00
16525;BME280;8375;33.594;-117.718;2023-08-06T12:40:45;100026.19;;;18.53;100.00
16525;BME280;8375;33.594;-117.718;2023-08-06T12:43:14;100019.59;;;18.57;100.00
16525;BME280;8375;33.594;-117.718;2023-08-06T12:45:43;100016.38;;;18.46;100.00
16525;BME280;8375;33.594;-117.718;2023-08-06T12:48:11;100018.19;;;18.46;100.00
16525;BME280;8375;33.594;-117.718;2023-08-06T12:50:40;100023.75;;;18.51;100.00
16525;BME280;8375;33.594;-117.718;2023-08-06T12:53:09;100016.91;;;18.42;100.00
16525;BME280;8375;33.594;-117.718;2023-08-06T12:55:38;100018.88;;;18.40;100.00